Hauptseite
METAR-TAF:

METAR-TAF

Flughäfen :

Rimini, Italien

Flughafen Rimini

Breite: 44-02N, Länge: 012-37E, Höhe: 12 m

Beobachtung

Neuester Wetterbericht von vor 27 Minuten, um 09:45 UTC
Wind 4 kt aus Nord
Temperatur 20°C
Luftfeuchtigkeit 56%
Luftdruck 1028 hPa
Sichtweite 10 km oder mehr
keine Wolken unter 1500 m und keine Kumulonimbus oder Gewitterwolken

METAR: LIPR 190945Z 36004KT CAVOK 20/11 Q1028

Zeit: 12:12 (10:12 UTC)

Prognose

Neuester Wetterbericht von vor 2 Stunden und 12 Minuten, um 08:00 UTC
Gültige Prognose vom 19 um 09 UTC bis 19 um 18 UTC
Wind 6 kt aus West/Nordwest
Sichtweite 10 km oder mehr
keine Wolken unter 1500 m und keine Kumulonimbus oder Gewitterwolken
Wahrscheinlichkeit 30% :
Zeitweise
vom 19 um 09 UTC bis 19 um 12 UTC
Wind 15 kt aus West/Nordwest, Böen bis zu 25 kt

TAF: LIPR 190800Z 1909/1918 29006KT CAVOK PROB30 TEMPO 1909/1912 30015G25KT

Wetterbeobachtungen und Prognosen von mehr als 4000 Flughäfen (METAR und TAF Bericht).

Die verfügbaren Stationen werden durch gelbe und rote Markierungen auf der Karte dargestellt.

Führen Sie die Maus auf sie, um den Namen der Station zu sehen.

Darauf klicken, um die Beobachtung von Wetterbeobachtungen und Prognosen zu sehen.

Um die Karte zu ändern : klicken Sie auf den grünen Tasten mit einem schwarzen Kreuz Zum Vergrößern, auf den grünen Button mit einem Gedankenstrich zu verkleinern, oder auf die grünen Pfeile für benachbarte Karten.


METAR-TAF: